Bury St Edmunds, United Kingdom
Current Conditions -  °F | °C
As of 1:58 AM on Saturday 25 Oct 2014 (Local Time) from EGUL Reporting Station
Haze Haze  
Wind Chill: 45°   Ceiling: Unl
Heat Index: 45°   Visibility: 3mi
Dew Point: 45°   Wind: 2mph
Humidity: 100%   Direction: 110°ESE
Pressure: 29.96"   Gusts: NA
Location:  52.25°N, 0.71°E
Report Text: EGUL 250058Z AUTO 11002KT 5000 BR CLR 07/07 A2996 RMK AO2 SLP149 T00740074
Loading
Personal Weather Stations






























Interactive Weather Map
Tropical Storm Tracking
New forecast layout! Learn more

10-Day Weather Forecast

Advertisements
Track Severe Weather on mobile